Time;durP1;ratioP1;P1;durP2;ratioP2;P2;SDS_P1;SDS_P2;PMS_P1;PMS_P2;Temp;Humidity;BMP_temperature;BMP_pressure;BME280_temperature;BME280_humidity;BME280_pressure;Samples;Min_cycle;Max_cycle;Signal;HPM_P1;HPM_P2
2021/03/17 00:01:58;;;;;;;2.43;2.23;;;;;;;6.49;81.44;96751.66;5054033;28;20261;-57
2021/03/17 00:04:23;;;;;;;2.43;2.30;;;;;;;6.43;82.06;96757.66;5065619;28;20191;-63
2021/03/17 00:06:48;;;;;;;2.40;2.20;;;;;;;6.26;81.92;96764.97;5061548;28;20598;-58
2021/03/17 00:09:14;;;;;;;2.13;2.03;;;;;;;5.90;83.85;96753.81;5053575;28;20191;-62
2021/03/17 00:11:39;;;;;;;2.03;1.90;;;;;;;6.24;82.03;96759.13;5054130;28;20212;-63
2021/03/17 00:14:04;;;;;;;2.33;2.17;;;;;;;6.22;82.60;96754.09;5066863;28;20185;-58
2021/03/17 00:16:30;;;;;;;2.50;2.30;;;;;;;6.25;82.43;96753.72;5073066;28;20514;-63
2021/03/17 00:18:55;;;;;;;2.10;2.00;;;;;;;6.17;82.41;96761.69;5057622;28;20234;-63
2021/03/17 00:21:22;;;;;;;2.20;2.10;;;;;;;6.10;83.04;96755.59;5053533;28;20537;-63
2021/03/17 00:23:47;;;;;;;2.00;1.90;;;;;;;6.10;82.67;96755.59;5053079;28;20213;-61
2021/03/17 00:26:12;;;;;;;2.30;2.20;;;;;;;6.18;83.35;96750.25;5053338;28;20806;-63
2021/03/17 00:28:38;;;;;;;2.43;2.23;;;;;;;6.32;82.38;96747.75;5053188;28;20199;-58
2021/03/17 00:31:03;;;;;;;1.90;1.80;;;;;;;6.45;82.34;96748.63;5054174;28;20180;-59
2021/03/17 00:33:29;;;;;;;2.53;2.33;;;;;;;6.59;81.49;96744.31;5051887;28;20278;-63
2021/03/17 00:35:54;;;;;;;2.10;2.00;;;;;;;6.63;81.82;96748.16;5053171;28;20246;-64
2021/03/17 00:38:20;;;;;;;2.40;2.20;;;;;;;6.52;80.86;96743.47;5052514;28;20207;-58
2021/03/17 00:40:45;;;;;;;2.10;2.00;;;;;;;6.45;81.53;96742.63;5052288;28;20195;-63
2021/03/17 00:43:11;;;;;;;2.13;1.90;;;;;;;6.54;81.11;96739.66;5052812;28;20178;-63
2021/03/17 00:45:36;;;;;;;2.10;1.90;;;;;;;6.41;81.78;96734.38;5052584;28;20230;-58
2021/03/17 00:48:02;;;;;;;2.17;1.97;;;;;;;6.50;81.95;96735.84;5070929;28;20194;-58
2021/03/17 00:50:27;;;;;;;2.37;2.17;;;;;;;6.54;81.91;96736.25;5072779;28;20250;-58
2021/03/17 00:52:56;;;;;;;2.27;1.80;;;;;;;6.51;81.20;96728.78;5072626;28;20232;-63
2021/03/17 00:55:23;;;;;;;2.60;2.40;;;;;;;6.37;82.62;96732.31;5066314;28;20167;-58
2021/03/17 00:57:48;;;;;;;1.70;1.60;;;;;;;6.35;83.29;96724.69;5052224;28;20430;-63
2021/03/17 01:00:15;;;;;;;2.67;2.47;;;;;;;6.40;82.46;96724.09;5060887;28;20464;-63
2021/03/17 01:02:41;;;;;;;2.90;2.70;;;;;;;6.59;81.28;96724.25;5056603;28;20195;-63
2021/03/17 01:05:24;;;;;;;2.47;2.27;;;;;;;6.51;81.87;96720.97;5056555;28;20847;-58
2021/03/17 01:07:50;;;;;;;2.50;2.30;;;;;;;6.64;81.86;96721.06;5056175;28;20199;-59
2021/03/17 01:10:21;;;;;;;2.53;2.33;;;;;;;6.48;82.11;96719.56;5056742;28;20750;-58
2021/03/17 01:12:46;;;;;;;2.33;2.17;;;;;;;6.66;81.20;96713.84;5056924;28;20178;-63
2021/03/17 01:15:14;;;;;;;2.17;2.07;;;;;;;6.71;80.33;96716.66;5065966;28;20425;-58
2021/03/17 01:17:40;;;;;;;2.37;2.27;;;;;;;6.75;81.43;96710.06;5055892;28;20229;-58
2021/03/17 01:20:07;;;;;;;2.67;2.47;;;;;;;6.87;80.80;96705.91;5056617;28;20449;-64
2021/03/17 01:22:33;;;;;;;3.07;2.87;;;;;;;6.92;80.38;96711.38;5056498;28;20171;-63
2021/03/17 01:24:58;;;;;;;3.03;2.40;;;;;;;6.72;80.78;96700.81;5056493;28;20912;-58
2021/03/17 01:27:23;;;;;;;2.60;2.40;;;;;;;6.72;80.86;96705.25;5057265;28;20634;-58
2021/03/17 01:29:49;;;;;;;2.80;2.40;;;;;;;6.84;80.91;96706.31;5056481;28;20170;-57
2021/03/17 01:32:14;;;;;;;2.30;2.10;;;;;;;6.67;80.74;96700.59;5056233;28;20183;-58
2021/03/17 01:34:39;;;;;;;2.13;2.03;;;;;;;6.62;81.19;96702.16;5055812;28;20587;-63
2021/03/17 01:37:05;;;;;;;2.40;2.20;;;;;;;6.73;81.49;96707.66;5056002;28;20752;-58
2021/03/17 01:39:30;;;;;;;2.70;2.53;;;;;;;6.83;80.54;96700.25;5056076;28;20683;-63
2021/03/17 01:41:56;;;;;;;3.47;2.70;;;;;;;6.90;80.22;96695.88;5057140;28;20176;-58
2021/03/17 01:44:21;;;;;;;3.10;2.90;;;;;;;6.86;79.94;96699.91;5072775;28;20257;-63
2021/03/17 01:46:46;;;;;;;3.00;2.80;;;;;;;6.95;80.10;96697.91;5075788;28;20629;-58
2021/03/17 01:49:12;;;;;;;2.50;2.40;;;;;;;6.87;80.25;96700.69;5063721;28;20597;-62
2021/03/17 01:51:37;;;;;;;3.20;2.90;;;;;;;6.88;80.64;96707.53;5055901;28;20671;-57
2021/03/17 01:54:04;;;;;;;2.77;2.57;;;;;;;6.80;80.51;96705.06;5055948;28;20259;-63
2021/03/17 01:56:30;;;;;;;2.70;2.50;;;;;;;6.69;81.70;96703.00;5055515;28;20229;-62
2021/03/17 01:58:56;;;;;;;3.00;2.80;;;;;;;6.80;81.40;96697.22;5055917;28;20511;-58
2021/03/17 02:01:21;;;;;;;2.97;2.50;;;;;;;6.84;80.47;96699.28;5055427;28;20427;-63
2021/03/17 02:03:47;;;;;;;2.93;2.73;;;;;;;6.90;80.55;96695.88;5055908;28;20626;-63
2021/03/17 02:06:12;;;;;;;3.10;2.80;;;;;;;6.92;80.45;96699.09;5055408;28;20186;-58
2021/03/17 02:08:42;;;;;;;3.60;3.00;;;;;;;7.00;79.81;96691.13;5055038;28;20457;-63
2021/03/17 02:11:10;;;;;;;5.17;2.87;;;;;;;6.94;80.49;96691.06;5055744;28;20250;-58
2021/03/17 02:13:50;;;;;;;3.27;3.07;;;;;;;6.81;81.13;96691.03;5055475;28;20456;-63
2021/03/17 02:16:26;;;;;;;3.10;2.90;;;;;;;6.96;81.15;96686.47;5055298;28;20924;-58
2021/03/17 02:19:19;;;;;;;3.30;3.10;;;;;;;6.84;81.10;96686.22;5055287;28;20418;-62
2021/03/17 02:22:28;;;;;;;3.60;3.30;;;;;;;6.79;81.20;96690.41;5055710;28;20402;-58
2021/03/17 02:25:47;;;;;;;3.50;3.20;;;;;;;6.79;81.05;96687.81;5073564;28;20417;-62
2021/03/17 02:28:23;;;;;;;3.37;3.07;;;;;;;5.99;83.90;96685.69;5064479;28;20472;-58
2021/03/17 02:30:55;;;;;;;3.43;2.50;;;;;;;6.35;83.55;96684.72;5049292;28;20425;-63
2021/03/17 02:34:00;;;;;;;2.57;2.37;;;;;;;6.26;82.30;96681.47;5055025;28;20479;-58
2021/03/17 02:36:36;;;;;;;3.37;3.07;;;;;;;6.14;83.89;96680.41;5054533;28;20414;-64
2021/03/17 02:39:50;;;;;;;3.20;2.90;;;;;;;6.08;84.14;96687.19;5070198;28;21024;-58
2021/03/17 02:42:21;;;;;;;2.60;2.50;;;;;;;6.17;84.74;96687.81;5074270;28;20414;-57
2021/03/17 02:44:55;;;;;;;3.37;3.07;;;;;;;6.30;83.59;96682.72;5075072;28;20438;-57
2021/03/17 02:47:22;;;;;;;2.83;2.63;;;;;;;6.47;83.03;96686.63;5071689;28;20417;-63
2021/03/17 02:49:53;;;;;;;3.80;3.30;;;;;;;6.41;83.83;96689.19;5054996;28;20477;-58
2021/03/17 02:52:19;;;;;;;3.30;2.50;;;;;;;6.65;83.21;96686.91;5068399;28;20482;-58
2021/03/17 02:54:48;;;;;;;3.03;2.73;;;;;;;6.71;82.91;96685.34;5074788;28;20401;-58
2021/03/17 02:57:19;;;;;;;4.63;3.07;;;;;;;6.67;82.51;96684.09;5074599;28;20405;-62
2021/03/17 02:59:51;;;;;;;3.10;2.80;;;;;;;6.61;82.82;96677.88;5074347;28;20571;-63
2021/03/17 03:02:18;;;;;;;3.00;2.70;;;;;;;6.61;82.59;96688.31;5070758;28;20795;-62
2021/03/17 03:04:44;;;;;;;3.00;2.80;;;;;;;6.71;81.78;96680.94;5054803;28;20414;-58
2021/03/17 03:07:11;;;;;;;2.33;2.13;;;;;;;6.74;81.53;96677.16;5070498;28;20422;-63
2021/03/17 03:09:39;;;;;;;2.80;2.60;;;;;;;6.69;82.17;96682.13;5074528;28;20877;-58
2021/03/17 03:12:06;;;;;;;3.17;2.93;;;;;;;6.61;82.53;96680.50;5074652;28;20421;-58
2021/03/17 03:14:33;;;;;;;2.90;2.70;;;;;;;6.75;81.71;96682.16;5069580;28;20437;-58
2021/03/17 03:17:01;;;;;;;2.90;2.40;;;;;;;6.59;81.57;96687.72;5053549;28;20421;-64
2021/03/17 03:19:32;;;;;;;3.37;3.17;;;;;;;6.69;81.31;96687.34;5057544;28;20516;-63
2021/03/17 03:22:02;;;;;;;3.97;2.70;;;;;;;6.69;81.22;96688.16;5054816;28;20414;-64
2021/03/17 03:24:28;;;;;;;3.73;3.43;;;;;;;6.81;81.80;96691.03;5063429;28;20418;-58
2021/03/17 03:26:58;;;;;;;2.77;2.57;;;;;;;6.91;81.22;96678.41;5053848;28;20426;-64
2021/03/17 03:29:27;;;;;;;2.90;2.70;;;;;;;6.88;80.84;96679.63;5054088;28;20962;-64
2021/03/17 03:31:54;;;;;;;3.40;3.10;;;;;;;6.92;80.48;96670.38;5058739;28;20422;-58
2021/03/17 03:34:19;;;;;;;4.00;3.30;;;;;;;6.87;80.78;96685.81;5055537;28;20531;-64
2021/03/17 03:36:45;;;;;;;3.50;3.20;;;;;;;6.70;81.59;96681.13;5053335;28;20851;-63
2021/03/17 03:39:14;;;;;;;4.10;3.60;;;;;;;6.74;81.46;96685.75;5067120;28;20261;-59
2021/03/17 03:41:40;;;;;;;3.90;3.60;;;;;;;6.80;80.93;96694.63;5062788;28;20183;-58
2021/03/17 03:44:06;;;;;;;3.77;3.37;;;;;;;6.85;80.99;96687.00;5053985;28;20416;-62
2021/03/17 03:46:33;;;;;;;3.97;3.57;;;;;;;6.92;80.94;96683.44;5068018;28;20431;-59
2021/03/17 03:49:00;;;;;;;2.93;2.73;;;;;;;7.03;80.73;96689.91;5071159;28;20197;-63
2021/03/17 03:51:26;;;;;;;4.03;3.60;;;;;;;6.96;80.14;96684.66;5066227;28;20772;-63
2021/03/17 03:54:40;;;;;;;3.20;2.90;;;;;;;6.90;80.86;96689.88;5057381;28;20422;-58
2021/03/17 03:57:08;;;;;;;4.17;3.33;;;;;;;6.73;80.24;96697.22;5036977;28;20411;-63
2021/03/17 03:59:42;;;;;;;3.77;3.47;;;;;;;6.52;81.39;96694.69;5033563;28;20778;-58
2021/03/17 04:02:11;;;;;;;3.97;3.60;;;;;;;6.69;81.04;96693.38;5068627;28;20421;-57
2021/03/17 04:04:42;;;;;;;3.80;3.40;;;;;;;6.65;81.58;96694.75;5073050;28;20417;-58
2021/03/17 04:07:10;;;;;;;4.97;4.57;;;;;;;6.73;82.19;96699.00;5058349;28;20414;-63
2021/03/17 04:09:45;;;;;;;3.63;3.33;;;;;;;6.75;81.86;96697.03;5053371;28;20539;-63
2021/03/17 04:12:11;;;;;;;4.00;3.70;;;;;;;6.76;80.98;96703.84;5053873;28;20819;-63
2021/03/17 04:14:39;;;;;;;4.40;4.00;;;;;;;6.71;80.91;96701.81;5055395;28;20426;-58
2021/03/17 04:17:18;;;;;;;3.97;3.60;;;;;;;6.71;81.48;96696.59;5064126;28;20964;-58
2021/03/17 04:19:48;;;;;;;4.00;3.70;;;;;;;6.43;82.69;96692.44;5053514;28;20546;-63
2021/03/17 04:22:16;;;;;;;4.60;3.70;;;;;;;6.51;82.70;96707.91;5052932;28;20894;-62
2021/03/17 04:24:42;;;;;;;3.97;3.67;;;;;;;6.54;82.25;96713.56;5053388;28;20405;-58
2021/03/17 04:27:10;;;;;;;4.43;4.03;;;;;;;6.57;82.62;96707.16;5052914;28;20502;-58
2021/03/17 04:29:38;;;;;;;5.03;4.53;;;;;;;6.56;82.29;96701.13;5066073;28;20434;-57
2021/03/17 04:32:04;;;;;;;4.83;4.43;;;;;;;6.45;83.16;96714.69;5071202;28;20425;-64
2021/03/17 04:34:31;;;;;;;5.23;4.83;;;;;;;6.16;83.35;96710.50;5073089;28;20845;-63
2021/03/17 04:36:57;;;;;;;4.20;3.90;;;;;;;6.24;84.69;96712.97;5060544;28;20417;-62
2021/03/17 04:39:24;;;;;;;4.90;4.40;;;;;;;6.30;83.33;96713.19;5057258;28;20453;-64
2021/03/17 04:41:54;;;;;;;4.77;4.37;;;;;;;6.20;85.11;96713.53;5057407;28;20409;-63
2021/03/17 04:44:20;;;;;;;4.77;4.30;;;;;;;6.37;84.14;96714.88;5057050;28;20485;-59
2021/03/17 04:46:48;;;;;;;4.87;4.47;;;;;;;6.53;83.09;96716.38;5056733;28;20418;-63
2021/03/17 04:49:14;;;;;;;4.80;4.23;;;;;;;6.60;82.86;96717.19;5057926;28;20934;-57
2021/03/17 04:51:42;;;;;;;5.03;4.53;;;;;;;6.51;83.89;96716.56;5068842;28;20482;-63
2021/03/17 04:54:07;;;;;;;5.43;4.93;;;;;;;6.57;83.86;96715.00;5062281;28;20418;-58
2021/03/17 04:56:33;;;;;;;5.53;5.03;;;;;;;6.59;83.51;96720.81;5056760;28;20479;-62
2021/03/17 04:59:01;;;;;;;7.33;5.60;;;;;;;6.49;83.33;96723.78;5056857;28;20198;-63
2021/03/17 05:01:29;;;;;;;6.73;6.10;;;;;;;6.46;84.45;96720.75;5068189;28;20423;-58
2021/03/17 05:03:55;;;;;;;6.00;5.40;;;;;;;6.46;84.20;96726.78;5073114;28;20430;-63
2021/03/17 05:06:20;;;;;;;6.60;6.00;;;;;;;6.64;83.65;96723.66;5058258;28;20414;-59
2021/03/17 05:08:47;;;;;;;6.37;5.80;;;;;;;6.69;83.16;96729.09;5061422;28;20568;-63
2021/03/17 05:11:13;;;;;;;7.03;6.30;;;;;;;6.62;82.64;96725.66;5055631;28;20641;-58
2021/03/17 05:13:39;;;;;;;6.93;6.30;;;;;;;6.70;82.78;96723.72;5056609;28;20428;-63
2021/03/17 05:16:07;;;;;;;7.30;6.20;;;;;;;6.83;82.87;96726.38;5070321;28;20425;-62
2021/03/17 05:18:33;;;;;;;6.57;5.77;;;;;;;6.70;82.88;96726.34;5076574;28;20433;-58
2021/03/17 05:21:00;;;;;;;7.23;6.57;;;;;;;6.72;83.12;96726.13;5061596;28;20485;-57
2021/03/17 05:23:26;;;;;;;8.00;7.20;;;;;;;6.87;82.06;96724.19;5068036;28;20418;-57
2021/03/17 05:25:53;;;;;;;7.17;6.47;;;;;;;6.75;82.67;96733.56;5056039;28;20417;-69
2021/03/17 05:28:19;;;;;;;7.80;7.03;;;;;;;6.55;83.61;96732.63;5056114;28;20246;-62
2021/03/17 05:30:48;;;;;;;8.37;7.60;;;;;;;6.77;83.36;96728.97;5056589;28;20492;-63
2021/03/17 05:33:16;;;;;;;8.67;7.60;;;;;;;6.62;82.92;96731.69;5056181;28;20222;-62
2021/03/17 05:35:41;;;;;;;8.83;7.93;;;;;;;6.66;84.04;96735.53;5068374;28;20418;-58
2021/03/17 05:38:07;;;;;;;8.27;7.43;;;;;;;6.70;82.53;96731.56;5055008;28;20859;-63
2021/03/17 05:40:34;;;;;;;10.07;9.00;;;;;;;6.85;82.61;96734.00;5055501;28;20195;-59
2021/03/17 05:43:02;;;;;;;9.97;8.60;;;;;;;6.68;83.15;96732.72;5056621;28;20451;-58
2021/03/17 05:45:28;;;;;;;9.80;8.90;;;;;;;6.58;84.31;96742.69;5055610;28;20429;-58
2021/03/17 05:47:54;;;;;;;11.07;9.97;;;;;;;6.58;84.10;96740.06;5055148;28;20447;-58
2021/03/17 05:50:23;;;;;;;10.27;9.30;;;;;;;6.62;82.62;96743.94;5062427;28;20516;-63
2021/03/17 05:52:48;;;;;;;10.10;9.10;;;;;;;6.67;83.70;96746.75;5074096;28;20425;-57
2021/03/17 05:55:15;;;;;;;12.87;10.90;;;;;;;6.69;83.76;96747.38;5058229;28;20432;-58
2021/03/17 05:57:42;;;;;;;11.03;9.93;;;;;;;6.66;83.24;96751.19;5055402;28;20233;-63
2021/03/17 06:00:10;;;;;;;10.63;9.50;;;;;;;6.54;83.40;96763.16;5059620;28;20522;-63
2021/03/17 06:02:39;;;;;;;12.07;10.97;;;;;;;6.40;84.61;96755.41;5059728;28;20425;-63
2021/03/17 06:05:11;;;;;;;11.27;10.17;;;;;;;6.44;83.60;96756.66;5055451;28;20424;-58
2021/03/17 06:07:51;;;;;;;10.87;9.77;;;;;;;6.52;84.48;96765.16;5055352;28;20472;-62
2021/03/17 06:10:17;;;;;;;11.10;9.40;;;;;;;6.39;83.89;96759.84;5055771;28;20500;-58
2021/03/17 06:12:47;;;;;;;14.13;11.37;;;;;;;6.25;84.79;96765.94;5055615;28;20857;-63
2021/03/17 06:15:15;;;;;;;12.23;10.70;;;;;;;6.33;84.86;96765.00;5068447;28;20980;-57
2021/03/17 06:17:42;;;;;;;11.97;10.03;;;;;;;6.40;84.15;96760.63;5072116;28;20785;-63
2021/03/17 06:20:08;;;;;;;13.30;10.23;;;;;;;6.33;85.87;96765.00;5055322;28;20461;-58
2021/03/17 06:22:35;;;;;;;14.70;11.37;;;;;;;6.43;85.14;96765.50;5059515;28;20413;-62
2021/03/17 06:25:09;;;;;;;13.23;11.83;;;;;;;6.57;84.89;96773.22;5067354;28;20418;-63
2021/03/17 06:27:37;;;;;;;12.97;11.30;;;;;;;6.66;83.70;96779.91;5053593;28;20441;-63
2021/03/17 06:30:05;;;;;;;11.67;10.50;;;;;;;6.65;82.91;96782.72;5059009;28;20426;-58
2021/03/17 06:32:34;;;;;;;11.80;10.60;;;;;;;6.46;84.19;96775.53;5071086;28;20510;-58
2021/03/17 06:35:00;;;;;;;12.17;10.63;;;;;;;6.61;83.36;96787.53;5067993;28;20432;-58
2021/03/17 06:37:38;;;;;;;12.60;10.87;;;;;;;6.57;83.50;96777.63;5058132;28;20434;-63
2021/03/17 06:40:20;;;;;;;11.80;10.60;;;;;;;6.56;84.43;96781.25;5055033;28;20202;-63
2021/03/17 06:42:46;;;;;;;11.13;9.50;;;;;;;6.62;84.05;96786.50;5062095;28;20417;-57
2021/03/17 06:45:12;;;;;;;12.20;9.20;;;;;;;6.51;84.31;96786.22;5072111;28;20425;-57
2021/03/17 06:47:38;;;;;;;10.90;9.70;;;;;;;6.33;85.39;96781.47;5074554;28;20468;-58
2021/03/17 06:50:08;;;;;;;10.70;9.63;;;;;;;6.64;83.84;96791.53;5074830;28;20411;-58
2021/03/17 06:52:39;;;;;;;11.23;9.17;;;;;;;6.38;84.46;96794.75;5068719;28;20172;-59
2021/03/17 06:55:20;;;;;;;10.47;9.17;;;;;;;6.31;85.25;96793.88;5057411;28;20526;-58
2021/03/17 06:57:47;;;;;;;10.10;9.10;;;;;;;6.39;84.08;96801.59;5053022;28;20451;-58
2021/03/17 07:00:32;;;;;;;10.13;9.03;;;;;;;6.42;84.28;96811.66;5055535;28;20939;-58
2021/03/17 07:02:59;;;;;;;9.97;8.93;;;;;;;6.38;84.12;96813.00;5054548;28;20407;-63
2021/03/17 07:05:36;;;;;;;9.87;8.90;;;;;;;6.23;85.34;96813.09;5054446;28;20889;-66
2021/03/17 07:08:03;;;;;;;12.03;9.53;;;;;;;6.22;85.23;96814.09;5074301;28;20427;-58
2021/03/17 07:10:40;;;;;;;11.00;9.90;;;;;;;6.05;85.87;96819.75;5074648;28;20783;-58
2021/03/17 07:13:08;;;;;;;9.60;8.03;;;;;;;6.22;86.31;96818.50;5060452;28;20483;-63
2021/03/17 07:15:35;;;;;;;10.27;9.17;;;;;;;6.16;86.30;96819.22;5057084;28;20420;-63
2021/03/17 07:18:17;;;;;;;14.27;9.57;;;;;;;6.26;86.13;96822.34;5066784;28;20448;-58
2021/03/17 07:20:46;;;;;;;9.80;8.80;;;;;;;6.20;86.29;96823.09;5073048;28;20454;-63
2021/03/17 07:23:29;;;;;;;10.47;9.40;;;;;;;6.12;85.13;96831.06;5074136;28;20409;-63
2021/03/17 07:26:11;;;;;;;11.13;10.00;;;;;;;6.14;85.82;96827.25;5060552;28;20433;-62
2021/03/17 07:29:01;;;;;;;11.13;9.60;;;;;;;6.38;85.93;96828.66;5055634;28;20777;-63
2021/03/17 07:31:28;;;;;;;9.17;8.00;;;;;;;6.44;84.99;96830.53;5074087;28;20406;-63
2021/03/17 07:33:54;;;;;;;11.13;9.90;;;;;;;6.63;84.34;96831.69;5053739;28;20888;-63
2021/03/17 07:36:31;;;;;;;14.13;10.40;;;;;;;6.50;84.93;96834.19;5073368;28;20432;-63
2021/03/17 07:38:59;;;;;;;12.30;9.93;;;;;;;6.37;84.79;96829.69;5072782;28;20503;-63
2021/03/17 07:41:25;;;;;;;11.87;9.40;;;;;;;6.51;84.61;96825.38;5073683;28;20461;-58
2021/03/17 07:43:53;;;;;;;10.93;9.63;;;;;;;6.66;84.38;96831.31;5073461;28;20420;-63
2021/03/17 07:46:21;;;;;;;11.43;9.70;;;;;;;6.63;84.00;96823.88;5072018;28;20436;-58
2021/03/17 07:48:49;;;;;;;12.80;10.40;;;;;;;6.80;83.11;96820.78;5053716;28;20434;-57
2021/03/17 07:51:15;;;;;;;12.43;9.87;;;;;;;6.72;83.49;96826.13;5053672;28;20833;-58
2021/03/17 07:53:43;;;;;;;11.90;9.40;;;;;;;6.46;84.39;96822.50;5055687;28;20423;-59
2021/03/17 07:56:08;;;;;;;11.53;10.00;;;;;;;6.58;85.54;96827.03;5064403;28;20433;-58
2021/03/17 07:58:34;;;;;;;11.60;10.10;;;;;;;6.80;83.90;96823.38;5053528;28;20426;-63
2021/03/17 08:01:00;;;;;;;13.50;10.07;;;;;;;6.85;84.26;96841.09;5054649;28;20209;-65
2021/03/17 08:03:27;;;;;;;17.30;10.50;;;;;;;7.02;83.47;96837.19;5053478;28;20176;-58
2021/03/17 08:05:53;;;;;;;14.87;9.97;;;;;;;7.00;83.77;96836.56;5071999;28;20417;-58
2021/03/17 08:08:20;;;;;;;11.17;9.57;;;;;;;6.95;84.31;96846.78;5069685;28;20995;-57
2021/03/17 08:10:47;;;;;;;12.37;9.77;;;;;;;7.12;84.52;96845.50;5073374;28;20202;-63
2021/03/17 08:13:13;;;;;;;12.83;10.53;;;;;;;7.28;82.19;96835.53;5071308;28;20426;-58
2021/03/17 08:15:39;;;;;;;15.00;10.87;;;;;;;7.38;82.52;96835.19;5071605;28;20466;-58
2021/03/17 08:18:32;;;;;;;14.97;10.10;;;;;;;7.40;83.42;96843.66;5053113;28;20846;-63
2021/03/17 08:20:58;;;;;;;13.50;10.37;;;;;;;7.55;82.36;96839.09;5049494;28;20472;-63
2021/03/17 08:23:47;;;;;;;11.50;8.70;;;;;;;7.51;80.82;96839.66;5065085;28;20432;-62
2021/03/17 08:26:33;;;;;;;12.90;8.70;;;;;;;7.61;80.33;96835.69;5053113;28;20531;-58
2021/03/17 08:28:59;;;;;;;10.97;9.43;;;;;;;7.74;80.68;96833.13;5063751;28;20852;-62
2021/03/17 08:31:36;;;;;;;11.20;8.40;;;;;;;7.80;80.43;96832.34;5055355;28;20509;-60
2021/03/17 08:34:21;;;;;;;10.80;7.90;;;;;;;7.62;77.42;96832.09;5042200;28;20193;-59
2021/03/17 08:36:58;;;;;;;9.20;6.90;;;;;;;7.78;77.16;96831.75;5052792;28;20493;-59
2021/03/17 08:39:29;;;;;;;11.63;7.40;;;;;;;7.75;77.10;96839.19;5052622;28;20456;-59
2021/03/17 08:41:59;;;;;;;7.57;6.17;;;;;;;7.73;74.95;96831.53;5052674;28;20415;-60
2021/03/17 08:44:27;;;;;;;8.37;6.50;;;;;;;8.03;75.34;96832.81;5053016;28;20430;-59
2021/03/17 08:46:56;;;;;;;8.40;6.53;;;;;;;8.02;74.85;96840.88;5052702;28;20413;-59
2021/03/17 08:49:38;;;;;;;6.80;6.10;;;;;;;7.82;75.01;96834.75;5052800;28;20434;-59
2021/03/17 08:52:06;;;;;;;6.70;5.93;;;;;;;7.94;75.35;96841.03;5053130;28;20838;-65
2021/03/17 08:54:34;;;;;;;7.00;5.77;;;;;;;7.63;73.28;96833.69;5061465;28;20423;-59
2021/03/17 08:57:04;;;;;;;6.73;5.73;;;;;;;7.83;74.53;96837.19;5052607;28;20950;-58
2021/03/17 08:59:45;;;;;;;8.30;6.53;;;;;;;8.02;73.33;96839.06;5053288;28;20459;-58
2021/03/17 09:02:26;;;;;;;6.90;6.20;;;;;;;8.13;73.66;96841.06;5054664;28;20777;-59
2021/03/17 09:04:57;;;;;;;7.30;5.93;;;;;;;8.19;73.82;96829.81;5033030;28;20544;-57
2021/03/17 09:07:33;;;;;;;9.30;6.33;;;;;;;8.25;75.22;96820.41;5032582;28;20943;-62
2021/03/17 09:10:16;;;;;;;10.43;7.10;;;;;;;8.45;73.52;96823.03;5033165;28;20411;-62
2021/03/17 09:12:41;;;;;;;7.10;5.67;;;;;;;8.34;72.84;96813.97;5030377;28;20438;-63
2021/03/17 09:15:11;;;;;;;5.40;4.90;;;;;;;8.33;71.26;96821.00;5042726;28;20429;-61
2021/03/17 09:17:51;;;;;;;6.30;5.33;;;;;;;8.30;69.10;96816.19;5067149;28;20199;-62
2021/03/17 09:20:38;;;;;;;6.30;4.93;;;;;;;8.06;69.74;96823.78;5069261;28;20452;-65
2021/03/17 09:23:05;;;;;;;6.17;4.90;;;;;;;8.39;68.16;96818.63;5067636;28;20424;-59
2021/03/17 09:25:36;;;;;;;8.13;4.73;;;;;;;8.37;67.34;96812.78;5059664;28;20425;-59
2021/03/17 09:28:05;;;;;;;4.93;4.43;;;;;;;8.50;66.36;96807.56;5031205;28;20491;-60
2021/03/17 09:30:44;;;;;;;5.90;5.23;;;;;;;8.72;66.48;96809.75;5043590;28;20429;-62
2021/03/17 09:33:15;;;;;;;7.87;5.00;;;;;;;8.71;65.45;96810.75;5052443;28;20998;-63
2021/03/17 09:35:45;;;;;;;6.60;4.30;;;;;;;8.83;64.99;96805.69;5052334;28;20435;-62
2021/03/17 09:38:13;;;;;;;4.60;4.20;;;;;;;8.74;63.73;96805.09;5051125;28;20440;-62
2021/03/17 09:40:55;;;;;;;5.97;3.83;;;;;;;8.83;63.65;96821.41;5052330;28;20550;-64
2021/03/17 09:43:28;;;;;;;4.20;3.67;;;;;;;9.03;63.54;96822.19;5052460;28;20423;-64
2021/03/17 09:45:53;;;;;;;5.97;4.83;;;;;;;9.13;65.46;96820.75;5052235;28;20425;-66
2021/03/17 09:48:18;;;;;;;5.30;4.80;;;;;;;9.30;64.69;96819.31;5051113;28;20449;-63
2021/03/17 09:50:45;;;;;;;3.90;3.47;;;;;;;9.08;60.35;96815.34;5053393;28;20211;-64
2021/03/17 09:53:15;;;;;;;3.93;3.23;;;;;;;8.90;61.72;96815.16;5052442;28;20178;-67
2021/03/17 09:55:41;;;;;;;5.33;3.20;;;;;;;9.02;59.63;96816.16;5047728;28;20492;-62
2021/03/17 09:58:07;;;;;;;2.73;2.40;;;;;;;9.19;62.12;96816.53;5050418;28;20451;-62
2021/03/17 10:00:35;;;;;;;3.93;3.60;;;;;;;9.18;61.78;96815.75;5051290;28;20202;-61
2021/03/17 10:03:02;;;;;;;4.77;3.73;;;;;;;9.38;59.78;96810.44;5053467;28;20454;-60
2021/03/17 10:05:28;;;;;;;5.50;4.23;;;;;;;9.09;58.92;96810.91;5052212;28;20413;-60
2021/03/17 10:07:54;;;;;;;9.03;7.30;;;;;;;8.96;61.62;96806.50;5051444;28;20474;-61
2021/03/17 10:10:20;;;;;;;5.43;3.80;;;;;;;9.05;64.01;96802.66;5056010;28;20514;-63
2021/03/17 10:12:47;;;;;;;4.50;3.77;;;;;;;9.31;60.33;96807.81;5057341;28;20233;-64
2021/03/17 10:15:18;;;;;;;4.33;3.93;;;;;;;9.50;60.38;96800.09;5051987;28;20909;-64
2021/03/17 10:17:44;;;;;;;5.57;3.83;;;;;;;9.70;63.21;96790.31;5051241;28;20961;-60
2021/03/17 10:20:20;;;;;;;4.57;4.10;;;;;;;10.00;62.20;96791.38;5051299;28;20465;-63
2021/03/17 10:22:48;;;;;;;3.80;3.50;;;;;;;9.70;57.33;96791.13;5051501;28;20423;-59
2021/03/17 10:25:16;;;;;;;5.67;4.27;;;;;;;9.91;59.20;96796.06;5051438;28;20423;-59
2021/03/17 10:27:50;;;;;;;5.10;3.70;;;;;;;10.23;58.48;96786.41;5051164;28;20947;-58
2021/03/17 10:30:18;;;;;;;3.50;3.20;;;;;;;9.89;56.56;96784.19;5051928;28;20449;-58
2021/03/17 10:32:47;;;;;;;4.27;3.87;;;;;;;9.82;56.62;96786.03;5051904;28;20431;-58
2021/03/17 10:35:14;;;;;;;2.70;2.50;;;;;;;9.81;56.92;96781.78;5051648;28;20427;-58
2021/03/17 10:37:41;;;;;;;5.33;2.67;;;;;;;9.77;56.36;96781.41;5050747;28;20526;-59
2021/03/17 10:40:28;;;;;;;2.60;2.40;;;;;;;9.72;56.22;96778.59;5056506;28;20458;-57
2021/03/17 10:42:58;;;;;;;2.87;2.40;;;;;;;9.58;54.26;96773.63;5053513;28;20834;-58
2021/03/17 10:45:25;;;;;;;2.30;2.00;;;;;;;9.78;55.17;96767.28;5061715;28;20438;-59
2021/03/17 10:47:52;;;;;;;2.43;2.03;;;;;;;10.28;53.64;96761.13;5054109;28;20448;-60
2021/03/17 10:50:31;;;;;;;2.73;2.50;;;;;;;10.26;52.40;96771.03;5050895;28;20974;-59
2021/03/17 10:52:57;;;;;;;2.50;2.30;;;;;;;10.02;53.36;96768.31;5031442;28;20416;-61
2021/03/17 10:55:28;;;;;;;3.07;2.77;;;;;;;10.00;54.78;96773.78;5031348;28;20436;-60
2021/03/17 10:58:08;;;;;;;2.40;2.20;;;;;;;10.25;53.20;96769.41;5038105;28;20224;-62
2021/03/17 11:00:34;;;;;;;2.97;2.70;;;;;;;9.90;52.57;96772.66;5050672;28;20456;-62
2021/03/17 11:02:59;;;;;;;2.40;2.20;;;;;;;10.20;53.12;96758.75;5050915;28;20937;-58
2021/03/17 11:05:32;;;;;;;2.40;2.10;;;;;;;10.44;51.33;96759.78;5051183;28;20641;-59
2021/03/17 11:08:09;;;;;;;2.83;2.63;;;;;;;10.08;50.58;96755.19;5050623;28;20252;-61
2021/03/17 11:10:34;;;;;;;4.60;3.13;;;;;;;10.26;52.85;96757.09;5051330;28;20536;-62
2021/03/17 11:13:09;;;;;;;3.20;2.10;;;;;;;9.79;51.03;96761.00;5070431;28;20524;-56
2021/03/17 11:15:41;;;;;;;5.97;5.47;;;;;;;9.63;52.21;96764.13;5069565;28;20878;-64
2021/03/17 11:18:06;;;;;;;3.30;2.30;;;;;;;9.89;52.29;96760.56;5063933;28;20476;-59
2021/03/17 11:20:42;;;;;;;4.17;2.80;;;;;;;9.67;53.11;96767.13;5070630;28;20497;-61
2021/03/17 11:23:14;;;;;;;2.97;2.73;;;;;;;9.71;51.24;96763.88;5057161;28;20190;-60
2021/03/17 11:25:40;;;;;;;3.33;2.60;;;;;;;9.25;52.84;96764.09;5051253;28;20944;-61
2021/03/17 11:28:13;;;;;;;3.83;2.50;;;;;;;9.40;54.54;96763.03;5050003;28;20530;-62
2021/03/17 11:30:46;;;;;;;2.77;2.57;;;;;;;9.34;52.54;96760.22;5050261;28;20173;-60
2021/03/17 11:33:13;;;;;;;2.97;2.53;;;;;;;9.31;54.58;96763.25;5050459;28;20900;-58
2021/03/17 11:35:43;;;;;;;2.60;2.40;;;;;;;9.28;54.77;96766.28;5050613;28;20415;-62
2021/03/17 11:38:09;;;;;;;3.30;2.50;;;;;;;9.26;54.64;96764.88;5060676;28;20444;-62
2021/03/17 11:40:36;;;;;;;4.97;3.40;;;;;;;8.80;56.78;96762.38;5070352;28;20460;-57
2021/03/17 11:43:13;;;;;;;3.10;2.80;;;;;;;8.42;59.65;96774.50;5054971;28;20462;-60
2021/03/17 11:45:41;;;;;;;3.20;2.80;;;;;;;8.56;61.97;96764.81;5050079;28;20440;-59
2021/03/17 11:48:07;;;;;;;3.87;3.00;;;;;;;8.60;61.57;96766.84;5049430;28;20434;-57
2021/03/17 11:50:34;;;;;;;3.60;3.30;;;;;;;8.69;62.87;96778.72;5056922;28;20413;-61
2021/03/17 11:52:59;;;;;;;5.03;4.53;;;;;;;8.43;64.97;96775.28;5069931;28;20469;-61